• Join FlightAware (Why Join?)
  • Login
  • US Flag 
07:33AM EDT


 

Airport Tracker/Info


-or-


 

Live Flight TrackerFlight Track Log ✈ VH-AHX ✈ 15-Nov-2013 ✈ YSBK / BWU - YSBK / BWU

Flight Track Log - Related Links

Times and Time Zones

All times are in EST time to prevent confusion due to time zone crossing. See the VH-AHX flight status page for this flight to view local times or setup timezone preferences in your user account.

Time Position Orientation Groundspeed Altitude Reporting Facility
EST Latitude Longitude Course Direction KTS MPH feet Rate Location/Type
08:55PM -33.9274 150.9970 85° East 75 86 500  Level Aus ATC (RADAR)
08:55PM -33.9269 151.0051 85° East 79 91 800 900 Climbing Aus ATC (RADAR)
08:56PM -33.9014 150.9811 322° Northwest 115 132 1,800 900 Climbing Aus ATC (RADAR)
08:56PM -33.8944 150.9678 302° West 109 125 2,200 720 Climbing Aus ATC (RADAR)
08:57PM -33.8866 150.9541 305° West 114 131 2,400 600 Climbing Aus ATC (RADAR)
08:57PM -33.8757 150.9319 301° West 111 128 2,900 720 Climbing Aus ATC (RADAR)
08:58PM -33.8677 150.9103 294° West 101 116 3,400 720 Climbing Aus ATC (RADAR)
08:59PM -33.8605 150.8909 294° West 104 120 3,800 420 Climbing Aus ATC (RADAR)
09:00PM -33.8524 150.8623 289° West 110 127 4,100 240 Climbing Aus ATC (RADAR)
09:00PM -33.8495 150.8477 283° West 124 143 4,100 -120 Level Aus ATC (RADAR)
09:01PM -33.8386 150.7843 282° West 158 182 4,000  Descending Aus ATC (RADAR)
09:02PM -33.8324 150.7623 289° West 161 185 4,100  Climbing Aus ATC (RADAR)
09:02PM -33.8253 150.7414 292° West 159 183 4,000 420 Descending Aus ATC (RADAR)
09:03PM -33.8165 150.7081 288° West 147 169 4,600 960 Climbing Aus ATC (RADAR)
09:03PM -33.8104 150.6814 285° West 116 133 5,300 960 Climbing Aus ATC (RADAR)
09:04PM -33.8054 150.6624 288° West 100 115 5,800 660 Climbing Aus ATC (RADAR)
09:05PM -33.7974 150.6359 290° West 111 128 6,200 240 Climbing Aus ATC (RADAR)
09:05PM -33.7915 150.6137 288° West 133 153 6,100 -60 Descending Aus ATC (RADAR)
09:06PM -33.7749 150.5484 287° West 153 176 6,100  Level Aus ATC (RADAR)
09:07PM -33.7691 150.5266 288° West 159 183 6,100  Level Aus ATC (RADAR)
09:07PM -33.7616 150.4958 286° West 161 185 6,100  Level Aus ATC (RADAR)
09:08PM -33.7522 150.4605 288° West 160 184 6,100  Level Aus ATC (RADAR)
09:09PM -33.7439 150.4303 288° West 159 183 6,100  Level Aus ATC (RADAR)
09:09PM -33.7370 150.4043 288° West 161 185 6,100  Level Aus ATC (RADAR)
09:10PM -33.7282 150.3699 287° West 158 182 6,100  Level Aus ATC (RADAR)
09:10PM -33.7199 150.3398 288° West 158 182 6,100  Level Aus ATC (RADAR)
09:12PM -33.6884 150.2509 293° West 162 186 6,100  Level Aus ATC (RADAR)
09:13PM -33.6805 150.2355 302° West 161 185 6,100  Level Aus ATC (RADAR)
09:13PM -33.6711 150.2163 301° West 159 183 6,100 -120 Level Aus ATC (RADAR)
09:14PM -33.6521 150.1770 300° West 161 185 6,000  Descending Aus ATC (RADAR)
09:14PM -33.6403 150.1477 296° West 163 188 6,100 60 Climbing Aus ATC (RADAR)
09:15PM -33.6208 150.1046 298° West 158 182 6,100  Level Aus ATC (RADAR)
09:15PM -33.6156 150.0928 298° West 159 183 6,100 60 Level Aus ATC (RADAR)
09:17PM -33.5909 150.0382 298° West 154 177 6,200 -60 Climbing Aus ATC (RADAR)
09:17PM -33.5802 150.0155 299° West 153 176 6,000 -240 Descending Aus ATC (RADAR)
09:18PM -33.5677 149.9885 299° West 156 180 6,000  Level Aus ATC (RADAR)
09:18PM -33.5505 149.9639 310° West 163 188 6,000 120 Level Aus ATC (RADAR)
09:19PM -33.5283 149.9494 331° Northwest 155 178 6,200  Climbing Aus ATC (RADAR)
09:20PM -33.4885 149.9299 338° Northwest 172 198 6,000 -120 Descending Aus ATC (RADAR)
09:20PM -33.4799 149.9214 320° Northwest 166 191 6,100 120 Climbing Aus ATC (RADAR)
09:21PM -33.4578 149.9046 328° Northwest 161 185 6,100  Level Aus ATC (RADAR)
09:22PM -33.4103 149.8742 332° Northwest 152 175 6,200 60 Climbing Aus ATC (RADAR)
09:22PM -33.3972 149.8652 330° Northwest 158 182 6,200  Level Aus ATC (RADAR)
09:23PM -33.3745 149.8500 331° Northwest 159 183 6,200 -120 Level Aus ATC (RADAR)
09:24PM -33.3449 149.8301 331° Northwest 164 189 6,100  Descending Aus ATC (RADAR)
09:24PM -33.3223 149.8144 330° Northwest 160 184 6,200 60 Climbing Aus ATC (RADAR)
09:25PM -33.2879 149.7907 330° Northwest 150 173 6,200  Level Aus ATC (RADAR)
09:25PM -33.2734 149.7803 329° Northwest 146 168 6,200 -60 Level Aus ATC (RADAR)
09:27PM -33.2271 149.7493 331° Northwest 136 157 6,100  Descending Aus ATC (RADAR)
09:27PM -33.2129 149.7393 329° Northwest 122 140 6,200  Climbing Aus ATC (RADAR)
09:28PM -33.2023 149.7283 319° Northwest 122 140 6,100 -240 Descending Aus ATC (RADAR)
09:28PM -33.2076 149.6999 257° West 131 151 6,000 -300 Descending Aus ATC (RADAR)
09:29PM -33.2221 149.6665 243° Southwest 118 136 5,700 -180 Descending Aus ATC (RADAR)
09:30PM -33.2283 149.6490 247° West 101 116 5,800 -300 Climbing Aus ATC (RADAR)
09:31PM -33.2548 149.6430 191° South 120 138 5,300 -660 Descending Aus ATC (RADAR)
09:31PM -33.2703 149.6422 183° South 132 152 5,000 -540 Descending Aus ATC (RADAR)
09:32PM -33.2914 149.6443 175° South 133 153 4,800 -60 Descending Aus ATC (RADAR)
09:34PM -33.3682 149.6814 195° South 7,000  Climbing Aus ATC (Calculated)
09:36PM -33.3807 149.7104 117° Southeast  Level Estimated
09:36PM -33.4471 149.6558 117° Southeast 110 127 4,900  Level Aus ATC (RADAR)
09:37PM -33.4628 149.6301 234° Southwest 104 120 5,600 600 Climbing Aus ATC (RADAR)
09:38PM -33.4450 149.6319 North 106 122 5,900 600 Climbing Aus ATC (RADAR)
09:38PM -33.4317 149.6371 18° North 115 132 6,200 60 Climbing Aus ATC (RADAR)
09:39PM -33.4107 149.6445 16° North 132 152 6,000 -180 Descending Aus ATC (RADAR)
09:39PM -33.4041 149.6787 77° East 170 196 6,000 60 Level Aus ATC (RADAR)
09:40PM -33.4211 149.7000 134° Southeast 142 163 6,100 120 Climbing Aus ATC (RADAR)
09:41PM -33.4533 149.7156 158° South 163 188 6,200 -180 Climbing Aus ATC (RADAR)
09:41PM -33.4755 149.7274 156° South 171 197 5,900 -120 Descending Aus ATC (RADAR)
09:42PM -33.5289 149.7503 160° South 172 198 6,000 60 Climbing Aus ATC (RADAR)
09:43PM -33.5474 149.7564 165° South 167 192 6,000 120 Level Aus ATC (RADAR)
09:43PM -33.5653 149.7646 159° South 167 192 6,100 -120 Climbing Aus ATC (RADAR)
09:44PM -33.5897 149.7798 153° Southeast 169 194 5,900  Descending Aus ATC (RADAR)
09:44PM -33.6233 149.7976 156° South 159 183 6,100 60 Climbing Aus ATC (RADAR)
09:45PM -33.6475 149.8106 156° South 163 188 6,000 -180 Descending Aus ATC (RADAR)
09:46PM -33.6874 149.8307 157° South 172 198 5,900 60 Descending Aus ATC (RADAR)
09:46PM -33.6980 149.8356 159° South 169 194 6,100  Climbing Aus ATC (RADAR)
09:48PM -33.7571 149.8666 156° South 162 186 5,900  Descending Aus ATC (RADAR)
09:48PM -33.7750 149.8752 158° South 164 189 6,100 180 Climbing Aus ATC (RADAR)
09:49PM -33.8003 149.8879 157° South 169 194 6,100  Level Aus ATC (RADAR)
09:49PM -33.8332 149.9032 159° South 169 194 6,100  Level Aus ATC (RADAR)
09:50PM -33.8633 149.9188 157° South 174 200 6,100  Level Aus ATC (RADAR)
09:51PM -33.8965 149.9420 150° Southeast 167 192 6,100  Level Aus ATC (RADAR)
09:51PM -33.9008 149.9601 106° East 165 190 6,100  Level Aus ATC (RADAR)
09:53PM -33.9091 150.0338 98° East 166 191 6,100  Level Aus ATC (RADAR)
09:53PM -33.9088 150.0567 89° East 162 186 6,100  Level Aus ATC (RADAR)
09:53PM -33.9096 150.0791 92° East 158 182 6,100  Level Aus ATC (RADAR)
09:54PM -33.9111 150.1144 93° East 155 178 6,100  Level Aus ATC (RADAR)
09:55PM -33.9130 150.1547 93° East 157 181 6,100  Level Aus ATC (RADAR)
09:55PM -33.9138 150.1909 92° East 158 182 6,100 -180 Level Aus ATC (RADAR)
09:56PM -33.9154 150.2340 93° East 150 173 5,900 -360 Descending Aus ATC (RADAR)
09:57PM -33.9170 150.2802 92° East 161 185 5,600 -420 Descending Aus ATC (RADAR)
09:58PM -33.9179 150.3077 92° East 160 184 5,400 -360 Descending Aus ATC (RADAR)
09:58PM -33.9190 150.3308 93° East 160 184 5,300 -300 Descending Aus ATC (RADAR)
09:59PM -33.9200 150.3688 92° East 164 189 5,100 -660 Descending Aus ATC (RADAR)
09:59PM -33.9215 150.4125 92° East 168 193 4,400 -600 Descending Aus ATC (RADAR)
10:00PM -33.9225 150.4435 92° East 154 177 4,300 -480 Descending Aus ATC (RADAR)
10:01PM -33.9241 150.4823 93° East 150 173 3,800 -660 Descending Aus ATC (RADAR)
10:01PM -33.9251 150.5082 93° East 150 173 3,500 -240 Descending Aus ATC (RADAR)
10:02PM -33.9254 150.5290 91° East 145 167 3,600 -300 Climbing Aus ATC (RADAR)
10:03PM -33.9281 150.5974 93° East 148 170 3,000 -360 Descending Aus ATC (RADAR)
10:03PM -33.9286 150.6140 92° East 146 168 3,000 -480 Level Aus ATC (RADAR)
10:04PM -33.9297 150.6436 93° East 146 168 2,600 -540 Descending Aus ATC (RADAR)
10:05PM -33.9313 150.6814 93° East 145 167 2,300 -480 Descending Aus ATC (RADAR)
10:05PM -33.9323 150.7102 92° East 144 166 2,000 -300 Descending Aus ATC (RADAR)
10:06PM -33.9333 150.7459 92° East 136 157 1,900 -300 Descending Aus ATC (RADAR)
10:06PM -33.9340 150.7652 92° East 134 154 1,700 -180 Descending Aus ATC (RADAR)
10:08PM -33.9367 150.8315 93° East 123 142 1,600 -60 Descending Aus ATC (RADAR)
10:08PM -33.9379 150.8525 94° East 124 143 1,600 -120 Level Aus ATC (RADAR)
10:09PM -33.9421 150.8695 107° East 124 143 1,500  Descending Aus ATC (RADAR)
10:09PM -33.9406 150.8917 85° East 115 132 1,600 -300 Climbing Aus ATC (RADAR)
10:10PM -33.9238 150.9198 54° Northeast 110 127 1,100 -480 Descending Aus ATC (RADAR)
10:11PM -33.9131 150.9369 53° Northeast 107 123 900 -360 Descending Aus ATC (RADAR)
10:12PM -33.9054 150.9623 70° East 96 110 600 -360 Descending Aus ATC (RADAR)